Time;durP1;ratioP1;P1;durP2;ratioP2;P2;SDS_P1;SDS_P2;PMS_P1;PMS_P2;Temp;Humidity;BMP_temperature;BMP_pressure;BME280_temperature;BME280_humidity;BME280_pressure;Samples;Min_cycle;Max_cycle;Signal;HPM_P1;HPM_P2
2022/03/18 00:00:20;;;;;;;17.90;5.95;;;4.60;99.90;;;;;;4931539;28;20085;-53
2022/03/18 00:02:48;;;;;;;27.38;6.38;;;4.60;99.90;;;;;;4932799;28;20138;-54
2022/03/18 00:05:14;;;;;;;16.17;6.63;;;4.60;99.90;;;;;;4936531;28;20491;-55
2022/03/18 00:07:41;;;;;;;19.90;6.97;;;4.60;99.90;;;;;;4935652;29;20118;-54
2022/03/18 00:10:09;;;;;;;18.50;6.15;;;4.60;99.90;;;;;;4936664;28;20055;-55
2022/03/18 00:12:37;;;;;;;14.70;6.47;;;4.60;99.90;;;;;;4947126;28;20043;-52
2022/03/18 00:15:09;;;;;;;20.75;6.63;;;4.60;99.90;;;;;;4930195;28;20051;-52
2022/03/18 00:17:35;;;;;;;17.88;6.43;;;4.60;99.90;;;;;;4932315;29;20070;-55
2022/03/18 00:20:01;;;;;;;14.65;5.80;;;4.50;99.90;;;;;;4939345;29;20043;-55
2022/03/18 00:22:27;;;;;;;21.83;5.85;;;4.60;99.90;;;;;;4930749;29;20834;-53
2022/03/18 00:24:52;;;;;;;21.58;6.40;;;4.60;99.90;;;;;;4932452;29;20087;-54
2022/03/18 00:27:18;;;;;;;20.23;6.25;;;4.50;99.90;;;;;;4933153;29;20382;-55
2022/03/18 00:29:44;;;;;;;14.60;6.20;;;4.50;99.90;;;;;;4932844;28;20062;-55
2022/03/18 00:32:10;;;;;;;25.25;6.90;;;4.50;99.90;;;;;;4933162;29;20043;-54
2022/03/18 00:34:36;;;;;;;15.63;6.88;;;4.40;99.90;;;;;;4932272;28;20061;-55
2022/03/18 00:37:02;;;;;;;16.33;6.55;;;4.40;99.90;;;;;;4933940;28;21053;-55
2022/03/18 00:39:28;;;;;;;22.70;6.70;;;4.40;99.90;;;;;;4932689;28;20052;-54
2022/03/18 00:41:53;;;;;;;20.92;6.80;;;4.40;99.90;;;;;;4933452;29;20051;-54
2022/03/18 00:44:20;;;;;;;22.73;7.03;;;4.40;99.90;;;;;;4931885;29;20134;-53
2022/03/18 00:46:46;;;;;;;16.98;6.78;;;4.40;99.90;;;;;;4931606;28;20051;-54
2022/03/18 00:52:06;;;;;;;16.98;6.82;;;4.30;99.90;;;;;;4933774;29;20055;-52
2022/03/18 00:54:36;;;;;;;15.50;7.13;;;4.30;99.90;;;;;;4929731;29;20059;-54
2022/03/18 00:57:03;;;;;;;24.00;7.75;;;4.30;99.90;;;;;;4929134;28;21135;-54
2022/03/18 00:59:30;;;;;;;20.60;7.78;;;4.30;99.90;;;;;;4929047;29;20062;-54
2022/03/18 01:01:57;;;;;;;21.80;7.65;;;4.30;99.90;;;;;;4933459;28;20122;-56
2022/03/18 01:04:25;;;;;;;17.02;7.45;;;4.30;99.90;;;;;;4930486;28;20051;-52
2022/03/18 01:06:54;;;;;;;19.65;7.88;;;4.40;99.90;;;;;;4940343;29;20446;-54
2022/03/18 01:09:21;;;;;;;18.20;7.63;;;4.30;99.90;;;;;;4933819;29;20054;-55
2022/03/18 01:11:50;;;;;;;25.23;8.07;;;4.30;99.90;;;;;;4933122;29;20828;-55
2022/03/18 01:14:19;;;;;;;21.95;7.53;;;4.30;99.90;;;;;;4931197;29;20048;-51
2022/03/18 01:16:45;;;;;;;22.40;8.40;;;4.30;99.90;;;;;;4931032;29;20099;-56
2022/03/18 01:19:12;;;;;;;22.98;8.75;;;4.30;99.90;;;;;;4930906;28;20057;-53
2022/03/18 01:21:38;;;;;;;18.88;8.13;;;4.30;99.90;;;;;;4931935;29;20047;-55
2022/03/18 01:24:05;;;;;;;23.92;9.18;;;4.30;99.90;;;;;;4931785;29;20039;-54
2022/03/18 01:26:30;;;;;;;21.98;8.13;;;4.30;99.90;;;;;;4937690;28;20502;-55
2022/03/18 01:28:58;;;;;;;23.60;8.75;;;4.30;99.90;;;;;;4931625;29;20051;-53
2022/03/18 01:31:24;;;;;;;21.80;8.20;;;4.30;99.90;;;;;;4934877;29;20047;-55
2022/03/18 01:33:50;;;;;;;21.80;8.45;;;4.30;99.90;;;;;;4935486;28;20048;-52
2022/03/18 01:36:16;;;;;;;22.67;8.77;;;4.30;99.90;;;;;;4937817;28;20047;-55
2022/03/18 01:38:42;;;;;;;22.35;8.70;;;4.30;99.90;;;;;;4932080;28;20050;-55
2022/03/18 01:41:08;;;;;;;20.30;8.35;;;4.30;99.90;;;;;;4932190;28;20047;-55
2022/03/18 01:43:44;;;;;;;20.45;8.10;;;4.30;99.90;;;;;;4936427;28;20047;-53
2022/03/18 01:46:11;;;;;;;16.83;8.10;;;4.20;99.90;;;;;;4926125;29;20383;-55
2022/03/18 01:48:36;;;;;;;24.88;8.18;;;4.20;99.90;;;;;;4932186;28;20087;-55
2022/03/18 01:51:07;;;;;;;22.60;8.55;;;4.20;99.90;;;;;;4933039;29;20058;-54
2022/03/18 01:53:34;;;;;;;20.90;8.73;;;4.20;99.90;;;;;;4933927;29;20055;-55
2022/03/18 01:56:01;;;;;;;18.60;8.07;;;4.20;99.90;;;;;;4933919;29;20131;-52
2022/03/18 01:58:27;;;;;;;22.00;8.43;;;4.20;99.90;;;;;;4934974;28;20086;-54
2022/03/18 02:00:53;;;;;;;16.85;8.43;;;4.20;99.90;;;;;;4937426;28;20414;-52
2022/03/18 02:03:19;;;;;;;27.55;8.35;;;4.20;99.90;;;;;;4936980;29;20047;-54
2022/03/18 02:05:44;;;;;;;22.08;9.60;;;4.20;99.90;;;;;;4935211;29;20055;-54
2022/03/18 02:08:11;;;;;;;17.65;8.50;;;4.20;99.90;;;;;;4936563;28;20055;-55
2022/03/18 02:10:37;;;;;;;19.33;8.60;;;4.20;99.90;;;;;;4934712;28;20066;-52
2022/03/18 02:13:04;;;;;;;16.15;7.85;;;4.20;99.90;;;;;;4934929;28;20405;-55
2022/03/18 02:15:30;;;;;;;19.92;8.73;;;4.20;99.90;;;;;;4936193;29;20051;-54
2022/03/18 02:17:55;;;;;;;24.35;8.80;;;4.20;99.90;;;;;;4933072;29;20075;-52
2022/03/18 02:20:21;;;;;;;18.33;8.63;;;4.10;99.90;;;;;;4935996;28;20435;-53
2022/03/18 02:22:47;;;;;;;16.23;8.63;;;4.10;99.90;;;;;;4933557;28;20120;-53
2022/03/18 02:25:13;;;;;;;17.77;7.90;;;4.00;99.90;;;;;;4937246;28;20056;-53
2022/03/18 02:27:41;;;;;;;18.40;8.90;;;4.00;99.90;;;;;;4937010;29;20052;-54
2022/03/18 02:30:08;;;;;;;20.17;9.05;;;4.00;99.90;;;;;;4936729;28;20058;-56
2022/03/18 02:32:36;;;;;;;21.60;9.20;;;4.00;99.90;;;;;;4932699;28;20063;-55
2022/03/18 02:35:02;;;;;;;18.75;9.23;;;4.00;99.90;;;;;;4934228;29;20047;-55
2022/03/18 02:37:28;;;;;;;17.83;8.73;;;3.90;99.90;;;;;;4937027;28;20043;-55
2022/03/18 02:39:59;;;;;;;19.35;9.05;;;3.90;99.90;;;;;;4935465;29;20499;-55
2022/03/18 02:42:24;;;;;;;19.20;8.68;;;3.90;99.90;;;;;;4934655;28;20047;-55
2022/03/18 02:44:50;;;;;;;18.17;9.07;;;3.90;99.90;;;;;;4936067;29;20039;-56
2022/03/18 02:47:17;;;;;;;22.20;9.73;;;3.90;99.90;;;;;;4933361;29;20043;-55
2022/03/18 02:49:42;;;;;;;17.08;8.80;;;3.90;99.90;;;;;;4933750;29;20115;-53
2022/03/18 02:52:09;;;;;;;20.13;9.32;;;3.90;99.90;;;;;;4933891;28;20486;-54
2022/03/18 02:54:35;;;;;;;19.20;8.88;;;4.00;99.90;;;;;;4930236;29;20055;-54
2022/03/18 02:57:00;;;;;;;16.52;7.97;;;4.00;99.90;;;;;;4931474;29;20047;-55
2022/03/18 02:59:26;;;;;;;16.70;8.20;;;4.10;99.90;;;;;;4935377;29;20070;-52
2022/03/18 03:01:52;;;;;;;16.33;8.43;;;4.10;99.90;;;;;;4934957;29;20035;-55
2022/03/18 03:04:18;;;;;;;16.65;8.02;;;4.10;99.90;;;;;;4933607;28;20043;-54
2022/03/18 03:09:28;;;;;;;21.13;7.97;;;4.10;99.90;;;;;;4935727;29;20512;-55
2022/03/18 03:11:56;;;;;;;14.93;8.00;;;4.00;99.90;;;;;;4932316;29;20043;-55
2022/03/18 03:14:22;;;;;;;21.77;8.85;;;4.00;99.90;;;;;;4933615;29;20078;-54
2022/03/18 03:16:48;;;;;;;18.95;8.90;;;4.00;99.90;;;;;;4932802;28;20167;-54
2022/03/18 03:19:14;;;;;;;17.52;9.00;;;3.90;99.90;;;;;;4931916;29;20099;-55
2022/03/18 03:21:40;;;;;;;16.13;8.23;;;3.90;99.90;;;;;;4933850;28;20487;-52
2022/03/18 03:24:08;;;;;;;15.27;9.23;;;3.90;99.90;;;;;;4934963;29;20050;-54
2022/03/18 03:26:34;;;;;;;19.42;8.82;;;3.80;99.90;;;;;;4933324;29;20505;-54
2022/03/18 03:29:00;;;;;;;20.90;8.88;;;3.80;99.90;;;;;;4934064;28;20039;-54
2022/03/18 03:31:26;;;;;;;18.80;9.00;;;3.70;99.90;;;;;;4932414;29;20106;-54
2022/03/18 03:33:52;;;;;;;22.63;10.10;;;3.70;99.90;;;;;;4932982;29;20043;-53
2022/03/18 03:36:18;;;;;;;25.08;9.77;;;3.80;99.90;;;;;;4933835;29;20039;-54
2022/03/18 03:38:44;;;;;;;14.77;8.82;;;3.70;99.90;;;;;;4935596;28;20524;-55
2022/03/18 03:41:10;;;;;;;20.58;9.20;;;3.70;99.90;;;;;;4933617;29;20410;-53
2022/03/18 03:43:36;;;;;;;18.58;8.85;;;3.70;99.90;;;;;;4921837;29;20138;-54
2022/03/18 03:46:02;;;;;;;16.13;9.02;;;3.70;99.90;;;;;;4933920;29;20047;-53
2022/03/18 03:48:28;;;;;;;15.57;8.98;;;3.80;99.90;;;;;;4931227;28;21637;-55
2022/03/18 03:50:54;;;;;;;13.55;8.65;;;3.80;99.90;;;;;;4933925;29;20125;-53
2022/03/18 03:53:20;;;;;;;22.08;8.43;;;3.90;99.90;;;;;;4931053;29;20051;-53
2022/03/18 03:55:45;;;;;;;23.00;8.68;;;3.90;99.90;;;;;;4933552;28;20082;-50
2022/03/18 03:58:11;;;;;;;15.50;8.40;;;3.90;99.90;;;;;;4930936;28;20058;-52
2022/03/18 04:00:38;;;;;;;19.25;9.55;;;4.00;99.90;;;;;;4936859;28;20512;-54
2022/03/18 04:03:04;;;;;;;22.23;9.43;;;4.00;99.90;;;;;;4933901;29;20420;-52
2022/03/18 04:05:34;;;;;;;17.58;9.07;;;4.00;99.90;;;;;;4932427;28;20062;-51
2022/03/18 04:08:01;;;;;;;24.63;9.00;;;4.10;99.90;;;;;;4934312;28;20048;-53
2022/03/18 04:10:28;;;;;;;17.38;9.07;;;4.10;99.90;;;;;;4933326;29;20059;-52
2022/03/18 04:12:54;;;;;;;16.38;9.43;;;4.10;99.90;;;;;;4930900;29;20129;-54
2022/03/18 04:15:21;;;;;;;17.42;9.43;;;4.10;99.90;;;;;;4930140;29;20062;-53
2022/03/18 04:17:48;;;;;;;19.27;9.82;;;4.10;99.90;;;;;;4930463;28;20070;-52
2022/03/18 04:20:16;;;;;;;17.90;8.98;;;4.10;99.90;;;;;;4933519;28;20047;-54
2022/03/18 04:22:42;;;;;;;19.75;9.55;;;4.10;99.90;;;;;;4929288;28;20850;-52
2022/03/18 04:25:09;;;;;;;15.75;9.02;;;4.10;99.90;;;;;;4940148;29;20610;-55
2022/03/18 04:27:35;;;;;;;19.30;8.77;;;4.10;99.90;;;;;;4931342;29;20511;-54
2022/03/18 04:30:03;;;;;;;17.05;9.63;;;4.20;99.90;;;;;;4934482;28;20050;-55
2022/03/18 04:32:28;;;;;;;17.67;8.82;;;4.20;99.90;;;;;;4933321;28;20138;-53
2022/03/18 04:34:54;;;;;;;16.77;9.25;;;4.20;99.90;;;;;;4920330;29;20489;-52
2022/03/18 04:37:20;;;;;;;18.83;9.52;;;4.20;99.90;;;;;;4933436;28;20074;-52
2022/03/18 04:39:46;;;;;;;19.10;9.10;;;4.30;99.90;;;;;;4930954;29;20051;-52
2022/03/18 04:42:12;;;;;;;15.88;9.25;;;4.30;99.90;;;;;;4931983;28;20044;-54
2022/03/18 04:44:39;;;;;;;18.35;10.10;;;4.30;99.90;;;;;;4933957;28;20078;-53
2022/03/18 04:47:05;;;;;;;16.92;9.88;;;4.50;99.90;;;;;;4932380;29;20046;-52
2022/03/18 04:49:32;;;;;;;17.23;9.05;;;4.40;99.90;;;;;;4932522;28;20051;-56
2022/03/18 04:51:57;;;;;;;20.95;10.10;;;4.40;99.90;;;;;;4933297;29;20102;-54
2022/03/18 04:54:23;;;;;;;16.95;9.40;;;4.40;99.90;;;;;;4930077;28;20062;-54
2022/03/18 04:59:34;;;;;;;22.35;10.35;;;4.40;99.90;;;;;;4934583;28;20285;-55
2022/03/18 05:01:59;;;;;;;22.60;9.88;;;4.50;99.90;;;;;;4934498;28;20035;-51
2022/03/18 05:04:25;;;;;;;22.92;11.05;;;4.40;99.90;;;;;;4932935;28;20648;-52
2022/03/18 05:06:51;;;;;;;20.33;10.32;;;4.40;99.90;;;;;;4933661;28;20134;-54
2022/03/18 05:09:17;;;;;;;18.10;9.90;;;4.40;99.90;;;;;;4930991;29;20048;-52
2022/03/18 05:11:43;;;;;;;18.95;10.20;;;4.30;99.90;;;;;;4930715;29;20099;-52
2022/03/18 05:14:09;;;;;;;17.15;10.32;;;4.30;99.90;;;;;;4929581;28;20052;-53
2022/03/18 05:16:35;;;;;;;22.42;10.68;;;4.30;99.90;;;;;;4932523;28;20729;-54
2022/03/18 05:19:00;;;;;;;19.55;11.00;;;4.30;99.90;;;;;;4932119;28;20078;-55
2022/03/18 05:21:26;;;;;;;20.30;10.98;;;4.30;99.90;;;;;;4934163;28;22653;-53
2022/03/18 05:23:52;;;;;;;17.98;10.50;;;4.20;99.90;;;;;;4933253;29;20047;-52
2022/03/18 05:26:18;;;;;;;18.65;9.88;;;4.20;99.90;;;;;;4935214;28;20051;-55
2022/03/18 05:28:46;;;;;;;22.35;11.32;;;4.20;99.90;;;;;;4933956;29;20047;-53
2022/03/18 05:31:12;;;;;;;17.27;10.63;;;4.20;99.90;;;;;;4935687;29;20402;-52
2022/03/18 05:33:38;;;;;;;17.73;10.73;;;4.10;99.90;;;;;;4933791;29;20043;-54
2022/03/18 05:36:04;;;;;;;19.27;10.60;;;4.10;99.90;;;;;;4933825;29;20498;-53
2022/03/18 05:38:30;;;;;;;17.85;10.00;;;4.10;99.90;;;;;;4931311;28;20129;-55
2022/03/18 05:40:56;;;;;;;19.02;11.48;;;4.10;99.90;;;;;;4931861;28;20056;-54
2022/03/18 05:43:22;;;;;;;19.17;12.05;;;4.10;99.90;;;;;;4930412;28;20544;-53
2022/03/18 05:45:48;;;;;;;17.52;10.50;;;4.10;99.90;;;;;;4929515;28;20139;-55
2022/03/18 05:48:13;;;;;;;19.85;10.93;;;4.10;99.90;;;;;;4930207;28;20130;-51
2022/03/18 05:50:39;;;;;;;14.40;9.85;;;4.10;99.90;;;;;;4930673;28;20063;-56
2022/03/18 05:53:05;;;;;;;16.27;10.90;;;4.00;99.90;;;;;;4930826;28;20619;-54
2022/03/18 05:58:18;;;;;;;18.27;11.65;;;4.00;99.90;;;;;;4929835;29;20145;-55
2022/03/18 06:00:45;;;;;;;19.42;11.15;;;4.00;99.90;;;;;;4931111;29;20044;-55
2022/03/18 06:03:12;;;;;;;18.10;10.60;;;4.00;99.90;;;;;;4928139;28;20048;-54
2022/03/18 06:05:39;;;;;;;16.77;10.40;;;4.00;99.90;;;;;;4929490;28;20252;-54
2022/03/18 06:13:34;;;;;;;21.98;11.20;;;3.90;99.90;;;;;;4934064;28;20134;-53
2022/03/18 06:16:00;;;;;;;16.77;10.32;;;3.90;99.90;;;;;;4937109;29;20150;-55
2022/03/18 06:18:26;;;;;;;18.30;10.90;;;3.90;99.90;;;;;;4934729;29;20055;-55
2022/03/18 06:20:56;;;;;;;16.52;11.13;;;3.90;99.90;;;;;;4930109;28;20051;-53
2022/03/18 06:23:22;;;;;;;17.42;10.68;;;3.90;99.90;;;;;;4929230;28;20044;-51
2022/03/18 06:25:48;;;;;;;19.27;11.55;;;3.90;99.90;;;;;;4948115;28;20051;-53
2022/03/18 06:28:13;;;;;;;22.48;11.88;;;4.00;99.90;;;;;;4934864;28;20043;-54
2022/03/18 06:30:39;;;;;;;21.27;11.70;;;3.90;99.90;;;;;;4941050;28;20043;-52
2022/03/18 06:33:05;;;;;;;23.40;11.63;;;3.90;99.90;;;;;;4931785;29;20056;-51
2022/03/18 06:35:31;;;;;;;22.40;12.10;;;3.90;99.90;;;;;;4940620;28;20171;-54
2022/03/18 06:37:57;;;;;;;21.00;11.57;;;3.90;99.90;;;;;;4931829;29;20082;-52
2022/03/18 06:40:22;;;;;;;20.33;11.32;;;3.90;99.90;;;;;;4938457;28;20048;-54
2022/03/18 06:42:48;;;;;;;16.10;11.05;;;4.00;99.90;;;;;;4935849;29;20611;-55
2022/03/18 06:45:14;;;;;;;19.75;11.45;;;3.90;99.90;;;;;;4935516;28;20062;-55
2022/03/18 06:47:40;;;;;;;16.70;11.13;;;3.90;99.90;;;;;;4933704;28;20105;-53
2022/03/18 06:50:08;;;;;;;20.98;11.65;;;3.90;99.90;;;;;;4935295;29;20178;-53
2022/03/18 06:52:34;;;;;;;22.05;11.98;;;3.90;99.90;;;;;;4936485;29;24274;-53
2022/03/18 06:55:00;;;;;;;21.63;12.73;;;4.00;99.90;;;;;;4935253;29;20110;-53
2022/03/18 06:57:26;;;;;;;21.85;12.25;;;4.00;99.90;;;;;;4934435;29;20404;-52
2022/03/18 06:59:52;;;;;;;22.63;13.32;;;4.00;99.90;;;;;;4933380;28;20047;-49
2022/03/18 07:02:18;;;;;;;19.77;13.60;;;4.10;99.90;;;;;;4939869;29;20095;-53
2022/03/18 07:04:43;;;;;;;24.00;14.25;;;4.10;99.90;;;;;;4937325;28;20475;-53
2022/03/18 07:07:09;;;;;;;24.77;13.48;;;4.10;99.90;;;;;;4936524;28;20335;-52
2022/03/18 07:09:36;;;;;;;20.85;13.88;;;4.20;99.90;;;;;;4933709;29;20087;-52
2022/03/18 07:12:03;;;;;;;23.80;15.15;;;4.20;99.90;;;;;;4935429;28;20059;-50
2022/03/18 07:14:29;;;;;;;20.98;13.82;;;4.30;99.90;;;;;;4933128;29;20494;-56
2022/03/18 07:19:39;;;;;;;22.75;14.40;;;4.40;99.90;;;;;;4937348;28;20058;-54
2022/03/18 07:22:06;;;;;;;26.48;15.32;;;4.40;99.90;;;;;;4938646;28;20043;-55
2022/03/18 07:24:32;;;;;;;25.63;16.92;;;4.40;99.90;;;;;;4933231;28;20118;-51
2022/03/18 07:26:58;;;;;;;30.77;17.00;;;4.50;99.90;;;;;;4946096;28;20130;-53
2022/03/18 07:29:23;;;;;;;27.73;16.55;;;4.60;99.90;;;;;;4937270;28;20103;-53
2022/03/18 07:31:51;;;;;;;23.95;16.40;;;4.60;99.90;;;;;;4937816;28;20047;-53
2022/03/18 07:34:17;;;;;;;28.60;16.50;;;4.70;99.90;;;;;;4935331;29;21125;-54
2022/03/18 07:36:43;;;;;;;23.55;17.48;;;4.80;99.90;;;;;;4937077;29;20048;-53
2022/03/18 07:39:09;;;;;;;31.13;17.75;;;4.90;99.90;;;;;;4933249;28;20047;-52
2022/03/18 07:41:35;;;;;;;29.20;17.98;;;4.90;99.90;;;;;;4935799;28;20047;-53
2022/03/18 07:44:02;;;;;;;26.73;18.00;;;5.00;99.90;;;;;;4932338;28;20044;-54
2022/03/18 07:46:28;;;;;;;30.60;18.60;;;5.10;99.90;;;;;;4933695;28;20037;-54
2022/03/18 07:48:53;;;;;;;33.30;18.33;;;5.10;99.90;;;;;;4943444;28;20063;-53
2022/03/18 07:51:19;;;;;;;35.28;18.85;;;5.20;99.90;;;;;;4936360;28;20036;-52
2022/03/18 07:53:45;;;;;;;32.60;18.88;;;5.30;99.90;;;;;;4930810;28;20075;-55
2022/03/18 07:56:11;;;;;;;32.50;18.92;;;5.40;99.90;;;;;;4934466;29;20110;-53
2022/03/18 07:58:37;;;;;;;36.00;19.58;;;5.50;99.90;;;;;;4933767;28;20053;-56
2022/03/18 08:01:04;;;;;;;32.78;19.90;;;5.60;99.90;;;;;;4933938;28;20110;-54
2022/03/18 08:03:30;;;;;;;32.92;20.25;;;5.70;99.90;;;;;;4931516;28;20051;-54
2022/03/18 08:05:56;;;;;;;32.35;20.63;;;5.90;99.90;;;;;;4934601;29;20565;-54
2022/03/18 08:08:21;;;;;;;31.23;20.05;;;6.00;99.90;;;;;;4933273;29;20052;-53
2022/03/18 08:10:47;;;;;;;35.30;21.33;;;6.10;99.90;;;;;;4936046;28;20126;-54
2022/03/18 08:13:14;;;;;;;39.83;20.58;;;6.30;99.90;;;;;;4933058;28;20051;-53
2022/03/18 08:15:40;;;;;;;36.88;20.88;;;6.50;99.90;;;;;;4931185;29;20088;-54
2022/03/18 08:18:09;;;;;;;42.70;21.52;;;6.70;99.90;;;;;;4932639;29;20063;-50
2022/03/18 08:20:40;;;;;;;41.92;21.08;;;6.80;99.90;;;;;;4934258;29;20505;-55
2022/03/18 08:23:11;;;;;;;44.38;20.17;;;7.10;99.90;;;;;;4932415;28;20055;-52
2022/03/18 08:25:37;;;;;;;37.90;20.90;;;7.30;99.90;;;;;;4933065;28;20039;-52
2022/03/18 08:28:05;;;;;;;38.45;20.13;;;7.40;99.90;;;;;;4931929;28;20486;-55
2022/03/18 08:30:31;;;;;;;41.55;20.45;;;7.60;99.90;;;;;;4931095;29;20106;-55
2022/03/18 08:32:57;;;;;;;46.33;18.23;;;7.80;99.90;;;;;;4929916;29;20534;-53
2022/03/18 08:35:23;;;;;;;38.45;17.10;;;8.00;99.90;;;;;;4931694;29;20058;-52
2022/03/18 08:37:58;;;;;;;42.72;18.27;;;8.10;99.90;;;;;;4926054;29;20052;-56
2022/03/18 08:40:34;;;;;;;38.30;17.60;;;8.30;99.90;;;;;;4929440;28;20051;-54
2022/03/18 08:43:02;;;;;;;33.25;15.45;;;8.40;99.90;;;;;;4930364;28;20074;-53
2022/03/18 08:45:29;;;;;;;40.67;17.10;;;8.60;99.90;;;;;;4928489;29;20150;-53
2022/03/18 08:47:55;;;;;;;27.92;14.68;;;8.80;99.90;;;;;;4929566;28;20048;-55
2022/03/18 08:50:22;;;;;;;37.20;15.73;;;8.90;99.90;;;;;;4928321;29;20058;-57
2022/03/18 08:52:50;;;;;;;35.45;14.88;;;9.00;99.90;;;;;;4926833;28;20054;-53
2022/03/18 08:55:17;;;;;;;32.92;14.60;;;9.20;99.90;;;;;;4931970;28;20245;-51
2022/03/18 08:57:43;;;;;;;31.00;15.05;;;9.30;99.90;;;;;;4928246;28;20051;-52
2022/03/18 09:00:13;;;;;;;29.95;13.25;;;9.50;99.90;;;;;;4930623;29;20488;-53
2022/03/18 09:02:39;;;;;;;32.40;14.18;;;9.60;99.90;;;;;;4926409;28;20782;-53
2022/03/18 09:05:07;;;;;;;35.47;13.48;;;9.70;99.90;;;;;;4929216;28;21359;-54
2022/03/18 09:07:34;;;;;;;32.10;13.50;;;9.80;99.90;;;;;;4931034;29;20082;-55
2022/03/18 09:10:00;;;;;;;30.67;13.43;;;9.90;99.90;;;;;;4928044;29;20854;-54
2022/03/18 09:12:26;;;;;;;28.90;13.23;;;10.10;99.90;;;;;;4933557;29;20486;-57
2022/03/18 09:14:52;;;;;;;31.92;13.10;;;10.30;99.90;;;;;;4927494;28;20106;-55
2022/03/18 09:17:19;;;;;;;24.00;12.55;;;10.40;99.90;;;;;;4928321;28;20519;-52
2022/03/18 09:19:44;;;;;;;31.67;13.43;;;10.50;99.90;;;;;;4935840;28;20043;-51
2022/03/18 09:22:10;;;;;;;30.15;13.48;;;10.60;99.90;;;;;;4932850;28;20122;-57
2022/03/18 09:24:38;;;;;;;28.80;13.38;;;10.70;99.90;;;;;;4930501;29;20044;-54
2022/03/18 09:27:05;;;;;;;30.38;12.52;;;10.90;99.90;;;;;;4932590;28;20394;-53
2022/03/18 09:29:31;;;;;;;30.40;11.95;;;11.00;99.90;;;;;;4929951;28;20055;-54
2022/03/18 09:31:57;;;;;;;24.92;11.65;;;11.20;99.90;;;;;;4932915;28;20141;-53
2022/03/18 09:34:24;;;;;;;23.67;11.80;;;11.30;99.90;;;;;;4931654;28;20047;-50
2022/03/18 09:36:56;;;;;;;23.60;10.88;;;11.40;99.90;;;;;;4931674;28;20043;-51
2022/03/18 09:39:23;;;;;;;28.58;12.50;;;11.60;99.90;;;;;;4934238;28;20055;-54
2022/03/18 09:41:49;;;;;;;30.20;11.90;;;11.60;99.90;;;;;;4926736;28;20066;-57
2022/03/18 09:44:15;;;;;;;25.98;10.35;;;11.70;99.90;;;;;;4925695;29;20743;-55
2022/03/18 09:46:42;;;;;;;36.33;10.48;;;11.90;99.90;;;;;;4930974;28;20672;-53
2022/03/18 09:49:14;;;;;;;25.05;11.00;;;11.90;99.90;;;;;;4930298;28;20051;-57
2022/03/18 09:51:44;;;;;;;28.98;10.88;;;12.00;99.90;;;;;;4933987;28;20040;-53
2022/03/18 09:54:11;;;;;;;26.05;10.63;;;12.10;99.90;;;;;;4934025;28;20533;-54
2022/03/18 09:56:41;;;;;;;27.60;9.65;;;12.20;99.90;;;;;;4933321;28;20476;-54
2022/03/18 09:59:07;;;;;;;27.65;10.15;;;12.30;99.90;;;;;;4930011;28;20042;-55
2022/03/18 10:01:33;;;;;;;31.08;11.13;;;12.40;99.90;;;;;;4932771;28;20051;-55
2022/03/18 10:04:10;;;;;;;32.63;10.82;;;12.60;99.90;;;;;;4932637;28;20043;-55
2022/03/18 10:06:38;;;;;;;27.92;10.55;;;12.70;99.90;;;;;;4935669;29;20054;-54
2022/03/18 10:09:05;;;;;;;26.13;9.73;;;12.80;99.90;;;;;;4933059;28;20398;-56
2022/03/18 10:11:36;;;;;;;22.30;9.50;;;12.90;99.90;;;;;;4933534;28;20807;-54
2022/03/18 10:14:13;;;;;;;24.48;9.75;;;13.00;99.90;;;;;;4933707;28;20097;-55
2022/03/18 10:16:47;;;;;;;26.58;10.00;;;13.10;99.90;;;;;;4941900;28;20502;-56
2022/03/18 10:19:25;;;;;;;24.80;10.57;;;13.20;99.90;;;;;;4935460;29;20126;-55
2022/03/18 10:21:57;;;;;;;24.23;9.38;;;13.40;99.90;;;;;;4937015;28;20043;-54
2022/03/18 10:24:34;;;;;;;25.13;10.45;;;13.50;99.90;;;;;;4923062;29;20051;-54
2022/03/18 10:27:11;;;;;;;21.02;9.05;;;13.60;99.90;;;;;;4931306;29;20043;-56
2022/03/18 10:29:55;;;;;;;23.73;8.60;;;13.70;99.90;;;;;;4932563;29;20055;-54
2022/03/18 10:32:31;;;;;;;24.52;9.13;;;13.80;99.90;;;;;;4923539;28;20074;-54
2022/03/18 10:37:51;;;;;;;22.17;8.27;;;14.00;99.90;;;;;;4936263;29;20819;-56
2022/03/18 10:40:36;;;;;;;22.25;8.32;;;14.20;99.90;;;;;;4933134;28;20114;-54
2022/03/18 10:43:07;;;;;;;18.88;8.10;;;14.40;99.90;;;;;;4935436;28;20048;-53
2022/03/18 10:45:34;;;;;;;24.38;7.88;;;14.50;99.90;;;;;;4935567;29;20062;-53
2022/03/18 10:48:14;;;;;;;23.73;8.07;;;14.60;99.90;;;;;;4937408;28;20051;-52
2022/03/18 10:50:40;;;;;;;26.50;8.23;;;14.60;99.90;;;;;;4935536;28;20058;-56
2022/03/18 10:53:10;;;;;;;24.40;8.35;;;14.70;99.90;;;;;;4935855;28;20989;-53
2022/03/18 10:55:38;;;;;;;26.48;8.70;;;14.80;99.90;;;;;;4919914;29;20077;-55
2022/03/18 10:58:12;;;;;;;22.15;7.65;;;14.90;99.90;;;;;;4940654;28;20071;-54
2022/03/18 11:00:42;;;;;;;22.80;7.93;;;14.90;99.90;;;;;;4937572;29;20051;-55
2022/03/18 11:03:08;;;;;;;15.35;6.55;;;15.00;99.90;;;;;;4941287;29;20048;-54
2022/03/18 11:05:39;;;;;;;21.88;7.13;;;15.10;99.90;;;;;;4934621;29;20498;-54
2022/03/18 11:08:09;;;;;;;20.10;7.88;;;15.10;99.90;;;;;;4935785;29;20570;-55
2022/03/18 11:13:25;;;;;;;22.75;7.95;;;15.10;99.90;;;;;;4933732;29;20051;-55
2022/03/18 11:15:52;;;;;;;21.52;6.93;;;15.30;99.90;;;;;;4935700;29;20081;-53
2022/03/18 11:18:19;;;;;;;15.73;5.95;;;15.50;99.90;;;;;;4934805;29;20438;-55
2022/03/18 11:20:45;;;;;;;17.40;7.63;;;15.60;99.90;;;;;;4935850;29;20055;-55
2022/03/18 11:23:31;;;;;;;17.73;7.43;;;15.70;99.90;;;;;;4934455;28;20062;-55
2022/03/18 11:26:02;;;;;;;22.05;7.82;;;15.70;99.90;;;;;;4933984;29;20434;-56
2022/03/18 11:28:28;;;;;;;22.15;6.75;;;15.60;99.90;;;;;;4934837;29;20044;-54
2022/03/18 11:31:06;;;;;;;23.52;6.80;;;15.70;99.90;;;;;;4936553;29;20102;-54
2022/03/18 11:33:33;;;;;;;20.52;6.75;;;15.80;99.70;;;;;;4934059;28;20055;-57
2022/03/18 11:36:03;;;;;;;24.08;6.10;;;15.90;99.90;;;;;;4933954;29;20655;-55
2022/03/18 11:38:56;;;;;;;30.13;8.15;;;16.10;99.60;;;;;;4935565;29;20443;-55
2022/03/18 11:41:26;;;;;;;22.37;7.23;;;16.30;99.20;;;;;;4934366;29;20063;-55
2022/03/18 11:43:52;;;;;;;24.73;7.05;;;16.40;98.70;;;;;;4934726;29;20055;-54
2022/03/18 11:46:21;;;;;;;22.70;6.28;;;16.40;98.30;;;;;;4934537;29;20058;-56
2022/03/18 11:49:03;;;;;;;19.67;6.30;;;16.50;98.50;;;;;;4935310;29;20052;-56
2022/03/18 11:51:34;;;;;;;16.52;5.70;;;16.70;97.30;;;;;;4930862;29;20051;-55
2022/03/18 11:54:03;;;;;;;18.95;6.03;;;16.60;97.10;;;;;;4933573;29;20044;-54
2022/03/18 11:56:51;;;;;;;22.27;6.05;;;16.60;96.80;;;;;;4945091;28;20114;-55
2022/03/18 11:59:27;;;;;;;20.27;6.43;;;16.60;95.00;;;;;;4935433;29;20066;-57
2022/03/18 12:02:09;;;;;;;23.23;5.95;;;16.60;96.00;;;;;;4932638;28;20046;-56
2022/03/18 12:04:41;;;;;;;23.30;6.28;;;16.60;96.00;;;;;;4934183;28;20105;-56
2022/03/18 12:07:25;;;;;;;13.85;6.15;;;16.60;96.20;;;;;;4942663;29;20050;-56
2022/03/18 12:09:57;;;;;;;16.52;5.35;;;16.70;96.20;;;;;;4930599;28;20058;-55
2022/03/18 12:12:23;;;;;;;;;;;16.90;94.70;;;;;;4933391;29;20050;-54
2022/03/18 12:14:51;;;;;;;19.00;6.20;;;17.00;95.70;;;;;;4935230;28;19922;-56
2022/03/18 12:17:17;;;;;;;17.48;5.45;;;17.10;94.70;;;;;;4929878;29;20165;-56
2022/03/18 12:19:50;;;;;;;21.73;5.90;;;17.20;94.10;;;;;;4934509;29;20764;-56
2022/03/18 12:22:18;;;;;;;24.48;6.63;;;17.40;93.30;;;;;;4933729;29;20999;-54
2022/03/18 12:24:45;;;;;;;21.25;5.25;;;17.50;93.30;;;;;;4933650;28;20461;-55
2022/03/18 12:27:11;;;;;;;23.13;6.25;;;17.50;92.10;;;;;;4934495;29;20073;-53
2022/03/18 12:29:36;;;;;;;16.05;5.38;;;17.40;92.50;;;;;;4933498;28;20788;-54
2022/03/18 12:32:09;;;;;;;17.67;5.13;;;17.60;93.60;;;;;;4933749;29;20055;-56
2022/03/18 12:34:45;;;;;;;21.23;5.78;;;17.80;93.00;;;;;;4934710;28;20059;-55
2022/03/18 12:37:22;;;;;;;19.63;5.22;;;17.90;92.30;;;;;;4930784;29;20048;-56
2022/03/18 12:40:06;;;;;;;27.50;5.55;;;17.90;91.50;;;;;;4931961;28;20108;-56
2022/03/18 12:42:48;;;;;;;22.30;5.50;;;17.90;90.70;;;;;;4929626;28;20051;-57
2022/03/18 12:45:24;;;;;;;21.10;5.30;;;17.90;90.70;;;;;;4932333;28;20469;-56
2022/03/18 12:47:51;;;;;;;19.92;5.05;;;17.90;90.50;;;;;;4930163;29;20056;-57
2022/03/18 12:50:17;;;;;;;19.48;5.00;;;17.90;90.50;;;;;;4931833;29;20051;-62
2022/03/18 12:52:44;;;;;;;21.38;5.18;;;18.00;90.40;;;;;;4936261;28;20054;-61
2022/03/18 12:55:12;;;;;;;16.30;5.13;;;18.00;89.20;;;;;;4933522;28;20150;-61
2022/03/18 12:57:41;;;;;;;19.52;5.13;;;18.00;88.20;;;;;;4930901;28;20051;-63
2022/03/18 13:00:09;;;;;;;20.00;5.10;;;18.00;87.50;;;;;;4932275;29;20051;-61
2022/03/18 13:02:36;;;;;;;19.00;5.18;;;18.00;86.80;;;;;;4927818;28;20043;-60
2022/03/18 13:05:05;;;;;;;21.20;5.38;;;18.10;86.30;;;;;;4927838;28;20054;-61
2022/03/18 13:07:31;;;;;;;23.98;5.15;;;18.20;86.40;;;;;;4930599;29;20054;-62